CFG45H EDDH-EHAM
Flight info
| Callsign | CFG45H |
|---|---|
| Flight time | 0h 52m |
| Altitude | 28000 |
| Route | WSN5G/33 WSN N125 BLUFA |
| Aircraft | A320/M-SDE3FGHIRWY/LB1 |
Departure
| Time | 2026-05-07 18:10 |
|---|---|
| Airport | Hamburg Helmut Schmidt Airport (EDDH) |
Arrival
| Time | 2026-05-07 19:02 |
|---|---|
| Airport | Amsterdam Airport Schiphol (EHAM) |
| Time | Latitude | Longitude | Altitude | Speed | Heading |
|---|---|---|---|---|---|
| 2026-05-07 17:35 | 53.63323 | 10.00371 | 51 ft | 0 kts | 85° |
| 2026-05-07 17:36 | 53.63337 | 10.00369 | 51 ft | 0 kts | 85° |
| 2026-05-07 17:57 | 53.63337 | 10.00365 | 51 ft | 2 kts | 85° |
| 2026-05-07 17:58 | 53.63336 | 10.00346 | 51 ft | 2 kts | 87° |
| 2026-05-07 17:58 | 53.63335 | 10.00318 | 51 ft | 2 kts | 88° |
| 2026-05-07 17:58 | 53.63334 | 10.00290 | 50 ft | 2 kts | 90° |
| 2026-05-07 17:58 | 53.63335 | 10.00263 | 50 ft | 2 kts | 99° |
| 2026-05-07 17:59 | 53.63339 | 10.00236 | 48 ft | 2 kts | 155° |
| 2026-05-07 17:59 | 53.63350 | 10.00231 | 49 ft | 1 kts | 178° |
| 2026-05-07 17:59 | 53.63351 | 10.00231 | 49 ft | 0 kts | 177° |
| 2026-05-07 18:01 | 53.63322 | 10.00224 | 50 ft | 8 kts | 193° |
| 2026-05-07 18:02 | 53.63220 | 10.00178 | 49 ft | 8 kts | 178° |
| 2026-05-07 18:02 | 53.63166 | 10.00185 | 45 ft | 8 kts | 175° |
| 2026-05-07 18:02 | 53.63111 | 10.00192 | 48 ft | 8 kts | 176° |
| 2026-05-07 18:03 | 53.63059 | 10.00172 | 46 ft | 8 kts | 213° |
| 2026-05-07 18:03 | 53.63014 | 10.00121 | 46 ft | 8 kts | 213° |
| 2026-05-07 18:03 | 53.62968 | 10.00073 | 45 ft | 8 kts | 212° |
| 2026-05-07 18:03 | 53.62929 | 10.00015 | 45 ft | 7 kts | 238° |
| 2026-05-07 18:04 | 53.62919 | 9.99983 | 45 ft | 0 kts | 243° |
| 2026-05-07 18:05 | 53.62917 | 9.99979 | 45 ft | 4 kts | 243° |
| 2026-05-07 18:05 | 53.62896 | 9.99909 | 46 ft | 6 kts | 243° |
| 2026-05-07 18:05 | 53.62895 | 9.99905 | 46 ft | 0 kts | 243° |
| 2026-05-07 18:06 | 53.62892 | 9.99894 | 43 ft | 2 kts | 243° |
| 2026-05-07 18:07 | 53.62883 | 9.99866 | 46 ft | 6 kts | 243° |
| 2026-05-07 18:07 | 53.62864 | 9.99786 | 47 ft | 9 kts | 261° |
| 2026-05-07 18:07 | 53.62887 | 9.99729 | 47 ft | 0 kts | 326° |
| 2026-05-07 18:09 | 53.62899 | 9.99717 | 47 ft | 13 kts | 330° |
| 2026-05-07 18:09 | 53.63238 | 9.99425 | 48 ft | 91 kts | 332° |
| 2026-05-07 18:10 | 53.63988 | 9.98780 | 50 ft | 149 kts | 333° |
| 2026-05-07 18:10 | 53.64995 | 9.97929 | 457 ft | 163 kts | 337° |
| 2026-05-07 18:10 | 53.66012 | 9.97058 | 1213 ft | 164 kts | 336° |
| 2026-05-07 18:10 | 53.67033 | 9.96179 | 1966 ft | 168 kts | 337° |
| 2026-05-07 18:11 | 53.68140 | 9.95239 | 2401 ft | 189 kts | 337° |
| 2026-05-07 18:11 | 53.68951 | 9.94551 | 2655 ft | 206 kts | 336° |
| 2026-05-07 18:11 | 53.70708 | 9.92942 | 3519 ft | 224 kts | 322° |
| 2026-05-07 18:11 | 53.71540 | 9.90705 | 4288 ft | 236 kts | 282° |
| 2026-05-07 18:12 | 53.71496 | 9.87814 | 4742 ft | 260 kts | 257° |
| 2026-05-07 18:12 | 53.70971 | 9.84802 | 5395 ft | 275 kts | 249° |
| 2026-05-07 18:12 | 53.70273 | 9.81749 | 6348 ft | 279 kts | 248° |
| 2026-05-07 18:12 | 53.69547 | 9.78698 | 7301 ft | 281 kts | 248° |
| 2026-05-07 18:13 | 53.68836 | 9.75601 | 8245 ft | 284 kts | 249° |
| 2026-05-07 18:13 | 53.68156 | 9.72465 | 9198 ft | 286 kts | 250° |
| 2026-05-07 18:13 | 53.67454 | 9.69290 | 9873 ft | 291 kts | 244° |
| 2026-05-07 18:13 | 53.66392 | 9.66383 | 10090 ft | 291 kts | 236° |
| 2026-05-07 18:14 | 53.65228 | 9.63435 | 10362 ft | 314 kts | 236° |
| 2026-05-07 18:14 | 53.63966 | 9.60267 | 10744 ft | 334 kts | 236° |
| 2026-05-07 18:14 | 53.62656 | 9.56988 | 11449 ft | 340 kts | 236° |
| 2026-05-07 18:14 | 53.61329 | 9.53666 | 12253 ft | 344 kts | 236° |
| 2026-05-07 18:15 | 53.60026 | 9.50397 | 13052 ft | 347 kts | 236° |
| 2026-05-07 18:15 | 53.58637 | 9.46913 | 13869 ft | 350 kts | 236° |
| 2026-05-07 18:15 | 53.57293 | 9.43534 | 14555 ft | 354 kts | 236° |
| 2026-05-07 18:15 | 53.55917 | 9.40078 | 15231 ft | 357 kts | 236° |
| 2026-05-07 18:16 | 53.54508 | 9.36543 | 15927 ft | 361 kts | 236° |
| 2026-05-07 18:16 | 53.53120 | 9.33069 | 16591 ft | 364 kts | 236° |
| 2026-05-07 18:16 | 53.51699 | 9.29524 | 17262 ft | 368 kts | 236° |
| 2026-05-07 18:16 | 53.50267 | 9.25954 | 17917 ft | 372 kts | 236° |
| 2026-05-07 18:17 | 53.48811 | 9.22330 | 18555 ft | 375 kts | 236° |
| 2026-05-07 18:17 | 53.47344 | 9.18676 | 19138 ft | 378 kts | 236° |
| 2026-05-07 18:17 | 53.45867 | 9.15000 | 19745 ft | 381 kts | 236° |
| 2026-05-07 18:17 | 53.44377 | 9.11308 | 20351 ft | 384 kts | 236° |
| 2026-05-07 18:18 | 53.42872 | 9.07588 | 20951 ft | 386 kts | 236° |
| 2026-05-07 18:18 | 53.41358 | 9.03846 | 21545 ft | 389 kts | 236° |
| 2026-05-07 18:18 | 53.39832 | 9.00077 | 22146 ft | 392 kts | 236° |
| 2026-05-07 18:18 | 53.38292 | 8.96284 | 22687 ft | 395 kts | 236° |
| 2026-05-07 18:19 | 53.36738 | 8.92458 | 23236 ft | 398 kts | 236° |
| 2026-05-07 18:19 | 53.35209 | 8.88566 | 23747 ft | 401 kts | 240° |
| 2026-05-07 18:19 | 53.34013 | 8.84344 | 24183 ft | 404 kts | 250° |
| 2026-05-07 18:19 | 53.33041 | 8.79912 | 24615 ft | 406 kts | 250° |
| 2026-05-07 18:20 | 53.32064 | 8.75466 | 25045 ft | 408 kts | 250° |
| 2026-05-07 18:20 | 53.31089 | 8.71052 | 25456 ft | 411 kts | 250° |
| 2026-05-07 18:20 | 53.30080 | 8.66494 | 25870 ft | 413 kts | 250° |
| 2026-05-07 18:20 | 53.29081 | 8.61974 | 26260 ft | 416 kts | 250° |
| 2026-05-07 18:21 | 53.28095 | 8.57492 | 26644 ft | 418 kts | 250° |
| 2026-05-07 18:21 | 53.27078 | 8.52860 | 27052 ft | 420 kts | 250° |
| 2026-05-07 18:21 | 53.26091 | 8.48320 | 27424 ft | 423 kts | 251° |
| 2026-05-07 18:21 | 53.25146 | 8.43605 | 27952 ft | 418 kts | 252° |
| 2026-05-07 18:22 | 53.24306 | 8.39125 | 28080 ft | 402 kts | 253° |
| 2026-05-07 18:22 | 53.23766 | 8.36157 | 28090 ft | 390 kts | 253° |
| 2026-05-07 18:22 | 53.22751 | 8.30520 | 28093 ft | 384 kts | 253° |
| 2026-05-07 18:22 | 53.21957 | 8.26176 | 28093 ft | 400 kts | 253° |
| 2026-05-07 18:23 | 53.21124 | 8.21711 | 28093 ft | 408 kts | 252° |
| 2026-05-07 18:23 | 53.19387 | 8.12603 | 28093 ft | 412 kts | 251° |
| 2026-05-07 18:24 | 53.17284 | 8.03705 | 28092 ft | 413 kts | 247° |
| 2026-05-07 18:24 | 53.15020 | 7.94924 | 28095 ft | 412 kts | 246° |
| 2026-05-07 18:25 | 53.12737 | 7.86163 | 28096 ft | 412 kts | 246° |
| 2026-05-07 18:25 | 53.10482 | 7.77395 | 28096 ft | 412 kts | 247° |
| 2026-05-07 18:26 | 53.08239 | 7.68631 | 28092 ft | 412 kts | 247° |
| 2026-05-07 18:26 | 53.05988 | 7.59889 | 28093 ft | 411 kts | 246° |
| 2026-05-07 18:26 | 53.04862 | 7.55529 | 27557 ft | 409 kts | 246° |
| 2026-05-07 18:27 | 53.03738 | 7.51191 | 26927 ft | 406 kts | 246° |
| 2026-05-07 18:27 | 53.02623 | 7.46902 | 26353 ft | 403 kts | 246° |
| 2026-05-07 18:27 | 53.01527 | 7.42692 | 26110 ft | 402 kts | 246° |
| 2026-05-07 18:27 | 53.00779 | 7.39821 | 26081 ft | 401 kts | 246° |
| 2026-05-07 18:28 | 52.99307 | 7.34180 | 26014 ft | 403 kts | 246° |
| 2026-05-07 18:28 | 52.98194 | 7.29925 | 25756 ft | 401 kts | 246° |
| 2026-05-07 18:28 | 52.97085 | 7.25691 | 25507 ft | 399 kts | 246° |
| 2026-05-07 18:28 | 52.95976 | 7.21466 | 25258 ft | 398 kts | 246° |
| 2026-05-07 18:29 | 52.94869 | 7.17263 | 25015 ft | 397 kts | 246° |
| 2026-05-07 18:29 | 52.93766 | 7.13079 | 24773 ft | 396 kts | 246° |
| 2026-05-07 18:29 | 52.92663 | 7.08900 | 24532 ft | 395 kts | 246° |
| 2026-05-07 18:29 | 52.91562 | 7.04736 | 24291 ft | 394 kts | 246° |
| 2026-05-07 18:30 | 52.90463 | 7.00593 | 24052 ft | 392 kts | 246° |
| 2026-05-07 18:30 | 52.89364 | 6.96470 | 23813 ft | 391 kts | 246° |
| 2026-05-07 18:30 | 52.88266 | 6.92359 | 23565 ft | 390 kts | 246° |
| 2026-05-07 18:30 | 52.87169 | 6.88246 | 23287 ft | 389 kts | 246° |
| 2026-05-07 18:31 | 52.86079 | 6.84162 | 23009 ft | 387 kts | 246° |
| 2026-05-07 18:31 | 52.84992 | 6.80087 | 22727 ft | 386 kts | 246° |
| 2026-05-07 18:31 | 52.83911 | 6.76040 | 22455 ft | 384 kts | 246° |
| 2026-05-07 18:31 | 52.82833 | 6.72007 | 22194 ft | 383 kts | 246° |
| 2026-05-07 18:32 | 52.81754 | 6.67994 | 21918 ft | 381 kts | 246° |
| 2026-05-07 18:32 | 52.80689 | 6.64043 | 21654 ft | 380 kts | 246° |
| 2026-05-07 18:32 | 52.79613 | 6.60064 | 21358 ft | 377 kts | 246° |
| 2026-05-07 18:32 | 52.78552 | 6.56140 | 20852 ft | 373 kts | 246° |
| 2026-05-07 18:33 | 52.77494 | 6.52233 | 20362 ft | 371 kts | 246° |
| 2026-05-07 18:33 | 52.76444 | 6.48370 | 19870 ft | 368 kts | 246° |
| 2026-05-07 18:33 | 52.75396 | 6.44524 | 19398 ft | 366 kts | 246° |
| 2026-05-07 18:33 | 52.74358 | 6.40709 | 18917 ft | 363 kts | 245° |
| 2026-05-07 18:34 | 52.73327 | 6.36926 | 18443 ft | 361 kts | 245° |
| 2026-05-07 18:34 | 52.72298 | 6.33158 | 17909 ft | 359 kts | 245° |
| 2026-05-07 18:34 | 52.71272 | 6.29409 | 17393 ft | 356 kts | 245° |
| 2026-05-07 18:34 | 52.70255 | 6.25700 | 16958 ft | 353 kts | 245° |
| 2026-05-07 18:35 | 52.69247 | 6.22034 | 16538 ft | 349 kts | 245° |
| 2026-05-07 18:35 | 52.68252 | 6.18422 | 16095 ft | 346 kts | 245° |
| 2026-05-07 18:35 | 52.67258 | 6.14813 | 15656 ft | 343 kts | 245° |
| 2026-05-07 18:35 | 52.66281 | 6.11258 | 15217 ft | 340 kts | 245° |
| 2026-05-07 18:36 | 52.65307 | 6.07719 | 14792 ft | 338 kts | 245° |
| 2026-05-07 18:36 | 52.64330 | 6.04187 | 14357 ft | 336 kts | 245° |
| 2026-05-07 18:36 | 52.63414 | 6.00875 | 13963 ft | 334 kts | 245° |
| 2026-05-07 18:36 | 52.62453 | 5.97403 | 13498 ft | 332 kts | 245° |
| 2026-05-07 18:37 | 52.61498 | 5.93957 | 13002 ft | 330 kts | 246° |
| 2026-05-07 18:37 | 52.60550 | 5.90539 | 12545 ft | 327 kts | 246° |
| 2026-05-07 18:37 | 52.59605 | 5.87148 | 12077 ft | 325 kts | 246° |
| 2026-05-07 18:37 | 52.58665 | 5.83781 | 11606 ft | 323 kts | 246° |
| 2026-05-07 18:38 | 52.57733 | 5.80447 | 11349 ft | 313 kts | 246° |
| 2026-05-07 18:38 | 52.56855 | 5.77311 | 11120 ft | 292 kts | 246° |
| 2026-05-07 18:38 | 52.56030 | 5.74365 | 10610 ft | 285 kts | 246° |
| 2026-05-07 18:38 | 52.55197 | 5.71398 | 10003 ft | 281 kts | 246° |
| 2026-05-07 18:39 | 52.54391 | 5.68530 | 9332 ft | 280 kts | 245° |
| 2026-05-07 18:39 | 52.53575 | 5.65633 | 8951 ft | 278 kts | 245° |
| 2026-05-07 18:39 | 52.52767 | 5.62762 | 8558 ft | 276 kts | 245° |
| 2026-05-07 18:39 | 52.51964 | 5.59913 | 8158 ft | 275 kts | 245° |
| 2026-05-07 18:40 | 52.51158 | 5.57083 | 7745 ft | 273 kts | 242° |
| 2026-05-07 18:40 | 52.50201 | 5.54413 | 7334 ft | 272 kts | 238° |
| 2026-05-07 18:40 | 52.49223 | 5.51755 | 7095 ft | 270 kts | 238° |
| 2026-05-07 18:40 | 52.48255 | 5.49120 | 7078 ft | 271 kts | 238° |
| 2026-05-07 18:41 | 52.47279 | 5.46464 | 7084 ft | 272 kts | 238° |
| 2026-05-07 18:41 | 52.46302 | 5.43810 | 7085 ft | 272 kts | 238° |
| 2026-05-07 18:41 | 52.45327 | 5.41164 | 7085 ft | 272 kts | 238° |
| 2026-05-07 18:41 | 52.44348 | 5.38512 | 7084 ft | 272 kts | 238° |
| 2026-05-07 18:42 | 52.43699 | 5.36753 | 7085 ft | 272 kts | 238° |
| 2026-05-07 18:42 | 52.42796 | 5.34311 | 7084 ft | 272 kts | 238° |
| 2026-05-07 18:42 | 52.41808 | 5.31654 | 7085 ft | 272 kts | 238° |
| 2026-05-07 18:42 | 52.40840 | 5.29039 | 7085 ft | 271 kts | 238° |
| 2026-05-07 18:43 | 52.39852 | 5.26362 | 7086 ft | 271 kts | 238° |
| 2026-05-07 18:43 | 52.38889 | 5.23760 | 7085 ft | 271 kts | 238° |
| 2026-05-07 18:43 | 52.37909 | 5.21120 | 7085 ft | 271 kts | 238° |
| 2026-05-07 18:43 | 52.36975 | 5.18608 | 7083 ft | 271 kts | 238° |
| 2026-05-07 18:44 | 52.35998 | 5.15978 | 7086 ft | 271 kts | 238° |
| 2026-05-07 18:44 | 52.35014 | 5.13337 | 7087 ft | 271 kts | 238° |
| 2026-05-07 18:44 | 52.34039 | 5.10703 | 7086 ft | 271 kts | 238° |
| 2026-05-07 18:44 | 52.33064 | 5.08071 | 7088 ft | 271 kts | 238° |
| 2026-05-07 18:45 | 52.32086 | 5.05433 | 7087 ft | 271 kts | 238° |
| 2026-05-07 18:45 | 52.31111 | 5.02801 | 7084 ft | 271 kts | 238° |
| 2026-05-07 18:45 | 52.30139 | 5.00177 | 7084 ft | 271 kts | 238° |
| 2026-05-07 18:45 | 52.29165 | 4.97545 | 7086 ft | 270 kts | 238° |
| 2026-05-07 18:46 | 52.28191 | 4.94913 | 7096 ft | 270 kts | 238° |
| 2026-05-07 18:46 | 52.27537 | 4.93149 | 7095 ft | 270 kts | 238° |
| 2026-05-07 18:46 | 52.26629 | 4.90793 | 7081 ft | 270 kts | 232° |
| 2026-05-07 18:46 | 52.25412 | 4.88592 | 7085 ft | 269 kts | 224° |
| 2026-05-07 18:47 | 52.24063 | 4.86467 | 7081 ft | 269 kts | 223° |
| 2026-05-07 18:47 | 52.22704 | 4.84358 | 7085 ft | 269 kts | 223° |
| 2026-05-07 18:47 | 52.21345 | 4.82251 | 7085 ft | 269 kts | 223° |
| 2026-05-07 18:47 | 52.19994 | 4.80156 | 7083 ft | 269 kts | 223° |
| 2026-05-07 18:48 | 52.19778 | 4.79821 | 7082 ft | 269 kts | 224° |
| 2026-05-07 18:48 | 52.18477 | 4.77712 | 7069 ft | 268 kts | 223° |
| 2026-05-07 18:48 | 52.17119 | 4.75598 | 7082 ft | 269 kts | 223° |
| 2026-05-07 18:49 | 52.15765 | 4.73502 | 7016 ft | 266 kts | 223° |
| 2026-05-07 18:49 | 52.14434 | 4.71439 | 6349 ft | 263 kts | 223° |
| 2026-05-07 18:49 | 52.13117 | 4.69393 | 5611 ft | 262 kts | 223° |
| 2026-05-07 18:49 | 52.11808 | 4.67358 | 4898 ft | 260 kts | 223° |
| 2026-05-07 18:50 | 52.10490 | 4.65313 | 4258 ft | 257 kts | 223° |
| 2026-05-07 18:50 | 52.09251 | 4.63388 | 4095 ft | 235 kts | 223° |
| 2026-05-07 18:50 | 52.08137 | 4.61648 | 4084 ft | 209 kts | 223° |
| 2026-05-07 18:50 | 52.07139 | 4.60080 | 4086 ft | 193 kts | 223° |
| 2026-05-07 18:51 | 52.06175 | 4.58565 | 4116 ft | 192 kts | 223° |
| 2026-05-07 18:51 | 52.05225 | 4.57067 | 4088 ft | 190 kts | 223° |
| 2026-05-07 18:51 | 52.04274 | 4.55570 | 4080 ft | 190 kts | 223° |
| 2026-05-07 18:51 | 52.03328 | 4.54070 | 4083 ft | 190 kts | 223° |
| 2026-05-07 18:52 | 52.02431 | 4.52490 | 4075 ft | 191 kts | 235° |
| 2026-05-07 18:52 | 52.02106 | 4.50424 | 4082 ft | 193 kts | 273° |
| 2026-05-07 18:52 | 52.02317 | 4.48266 | 4088 ft | 194 kts | 281° |
| 2026-05-07 18:52 | 52.02615 | 4.46131 | 4087 ft | 194 kts | 282° |
| 2026-05-07 18:53 | 52.02925 | 4.44002 | 4087 ft | 194 kts | 282° |
| 2026-05-07 18:53 | 52.03239 | 4.41872 | 4085 ft | 194 kts | 282° |
| 2026-05-07 18:53 | 52.03554 | 4.39732 | 4085 ft | 194 kts | 283° |
| 2026-05-07 18:53 | 52.04078 | 4.37733 | 4072 ft | 195 kts | 311° |
| 2026-05-07 18:54 | 52.05154 | 4.36401 | 4093 ft | 196 kts | 330° |
| 2026-05-07 18:54 | 52.06329 | 4.35337 | 4085 ft | 195 kts | 332° |
| 2026-05-07 18:54 | 52.07529 | 4.34297 | 4087 ft | 195 kts | 332° |
| 2026-05-07 18:54 | 52.08730 | 4.33269 | 4089 ft | 195 kts | 335° |
| 2026-05-07 18:55 | 52.10021 | 4.32762 | 3969 ft | 190 kts | 5° |
| 2026-05-07 18:55 | 52.11253 | 4.33424 | 3648 ft | 187 kts | 29° |
| 2026-05-07 18:55 | 52.12385 | 4.34458 | 3332 ft | 186 kts | 32° |
| 2026-05-07 18:55 | 52.13495 | 4.35529 | 3060 ft | 184 kts | 33° |
| 2026-05-07 18:56 | 52.14513 | 4.36756 | 3002 ft | 181 kts | 53° |
| 2026-05-07 18:56 | 52.15215 | 4.38454 | 3019 ft | 181 kts | 58° |
| 2026-05-07 18:56 | 52.15905 | 4.40171 | 3014 ft | 182 kts | 59° |
| 2026-05-07 18:56 | 52.16587 | 4.41905 | 3014 ft | 181 kts | 59° |
| 2026-05-07 18:57 | 52.17263 | 4.43636 | 3014 ft | 182 kts | 59° |
| 2026-05-07 18:57 | 52.17940 | 4.45371 | 3013 ft | 181 kts | 59° |
| 2026-05-07 18:57 | 52.18614 | 4.47106 | 3011 ft | 182 kts | 59° |
| 2026-05-07 18:57 | 52.19291 | 4.48846 | 3013 ft | 181 kts | 59° |
| 2026-05-07 18:58 | 52.19964 | 4.50579 | 3015 ft | 182 kts | 59° |
| 2026-05-07 18:58 | 52.20642 | 4.52326 | 2981 ft | 182 kts | 59° |
| 2026-05-07 18:58 | 52.21320 | 4.54072 | 2807 ft | 181 kts | 59° |
| 2026-05-07 18:58 | 52.21991 | 4.55804 | 2583 ft | 180 kts | 59° |
| 2026-05-07 18:59 | 52.22651 | 4.57506 | 2356 ft | 175 kts | 58° |
| 2026-05-07 18:59 | 52.23294 | 4.59168 | 2106 ft | 170 kts | 58° |
| 2026-05-07 18:59 | 52.23907 | 4.60751 | 1883 ft | 158 kts | 58° |
| 2026-05-07 18:59 | 52.24460 | 4.62183 | 1683 ft | 142 kts | 58° |
| 2026-05-07 19:00 | 52.24966 | 4.63490 | 1492 ft | 133 kts | 58° |
| 2026-05-07 19:00 | 52.25444 | 4.64729 | 1317 ft | 129 kts | 58° |
| 2026-05-07 19:00 | 52.25926 | 4.65977 | 1136 ft | 129 kts | 57° |
| 2026-05-07 19:00 | 52.26404 | 4.67215 | 952 ft | 128 kts | 57° |
| 2026-05-07 19:01 | 52.26874 | 4.68432 | 793 ft | 127 kts | 58° |
| 2026-05-07 19:01 | 52.27334 | 4.69671 | 641 ft | 127 kts | 59° |
| 2026-05-07 19:01 | 52.27797 | 4.70897 | 470 ft | 129 kts | 57° |
| 2026-05-07 19:01 | 52.28281 | 4.72117 | 300 ft | 129 kts | 57° |
| 2026-05-07 19:02 | 52.28755 | 4.73326 | 97 ft | 127 kts | 58° |
| 2026-05-07 19:02 | 52.29205 | 4.74504 | 2 ft | 119 kts | 58° |
| 2026-05-07 19:02 | 52.29559 | 4.75422 | -2 ft | 70 kts | 57° |
| 2026-05-07 19:02 | 52.29733 | 4.75863 | -2 ft | 37 kts | 57° |
| 2026-05-07 19:03 | 52.29870 | 4.76219 | -3 ft | 38 kts | 58° |
| 2026-05-07 19:03 | 52.30030 | 4.76559 | -2 ft | 37 kts | 28° |
| 2026-05-07 19:03 | 52.30171 | 4.76664 | -1 ft | 13 kts | 27° |
| 2026-05-07 19:03 | 52.30206 | 4.76693 | -1 ft | 0 kts | 27° |
| 2026-05-07 19:04 | 52.30206 | 4.76694 | -1 ft | 1 kts | 27° |
| 2026-05-07 19:04 | 52.30235 | 4.76718 | -1 ft | 6 kts | 27° |
| 2026-05-07 19:04 | 52.30280 | 4.76754 | -1 ft | 7 kts | 30° |
| 2026-05-07 19:05 | 52.30325 | 4.76853 | -1 ft | 13 kts | 57° |
| 2026-05-07 19:05 | 52.30378 | 4.76993 | -1 ft | 14 kts | 59° |
| 2026-05-07 19:05 | 52.30465 | 4.77010 | -1 ft | 16 kts | 327° |
| 2026-05-07 19:05 | 52.30520 | 4.76899 | -1 ft | 12 kts | 286° |
| 2026-05-07 19:06 | 52.30544 | 4.76810 | -1 ft | 0 kts | 295° |
| 2026-05-07 19:09 | 52.30544 | 4.76809 | -1 ft | 0 kts | 295° |